createdAt,value
2018-07-08T00:01:35.633Z,14.90
2018-07-08T00:04:04.214Z,14.90
2018-07-08T00:06:33.733Z,14.80
2018-07-08T00:09:02.275Z,14.80
2018-07-08T00:11:30.776Z,14.80
2018-07-08T00:16:27.716Z,14.80
2018-07-08T00:18:56.190Z,14.80
2018-07-08T00:21:24.715Z,14.70
2018-07-08T00:26:21.420Z,14.70
2018-07-08T00:28:49.952Z,14.70
2018-07-08T00:31:18.593Z,14.70
2018-07-08T00:33:47.135Z,14.70
2018-07-08T00:36:15.658Z,14.70
2018-07-08T00:38:44.174Z,14.70
2018-07-08T00:41:12.694Z,14.70
2018-07-08T00:43:41.225Z,14.70
2018-07-08T00:46:09.793Z,14.70
2018-07-08T00:48:38.294Z,14.60
2018-07-08T00:51:06.866Z,14.60
2018-07-08T00:53:35.392Z,14.60
2018-07-08T00:56:03.972Z,14.60
2018-07-08T00:58:32.529Z,14.60
2018-07-08T01:01:01.051Z,14.60
2018-07-08T01:03:29.575Z,14.60
2018-07-08T01:05:58.104Z,14.60
2018-07-08T01:08:26.638Z,14.60
2018-07-08T01:10:55.154Z,14.50
2018-07-08T01:13:23.719Z,14.60
2018-07-08T01:15:52.268Z,14.50
2018-07-08T01:18:20.804Z,14.50
2018-07-08T01:20:49.879Z,14.50
2018-07-08T01:23:18.364Z,14.50
2018-07-08T01:25:58.222Z,14.50
2018-07-08T01:28:26.655Z,14.40
2018-07-08T01:30:55.226Z,14.40
2018-07-08T01:33:23.886Z,14.40
2018-07-08T01:35:52.404Z,14.40
2018-07-08T01:38:20.878Z,14.40
2018-07-08T01:40:49.346Z,14.40
2018-07-08T01:43:17.859Z,14.40
2018-07-08T01:45:46.346Z,14.40
2018-07-08T01:48:14.863Z,14.40
2018-07-08T01:50:43.370Z,14.30
2018-07-08T01:53:11.916Z,14.30
2018-07-08T01:55:40.387Z,14.30
2018-07-08T01:58:08.863Z,14.30
2018-07-08T02:05:33.671Z,14.30
2018-07-08T02:08:02.206Z,14.30
2018-07-08T02:10:30.709Z,14.30
2018-07-08T02:12:59.231Z,14.20
2018-07-08T02:15:27.762Z,14.30
2018-07-08T02:17:56.235Z,14.20
2018-07-08T02:20:24.744Z,14.20
2018-07-08T02:22:53.671Z,14.20
2018-07-08T02:25:22.144Z,14.20
2018-07-08T02:27:50.898Z,14.20
2018-07-08T02:32:47.566Z,14.20
2018-07-08T02:35:16.095Z,14.20
2018-07-08T02:37:44.902Z,14.20
2018-07-08T02:40:13.442Z,14.10
2018-07-08T02:42:42.010Z,14.20
2018-07-08T02:47:38.879Z,14.10
2018-07-08T02:50:07.449Z,14.10
2018-07-08T02:52:36.036Z,14.10
2018-07-08T02:55:04.526Z,14.10
2018-07-08T02:57:32.982Z,14.10
2018-07-08T03:00:01.484Z,14.10
2018-07-08T03:02:29.975Z,14.10
2018-07-08T03:04:58.462Z,14.10
2018-07-08T03:07:26.937Z,14.10
2018-07-08T03:09:55.426Z,14.10
2018-07-08T03:12:23.890Z,14.10
2018-07-08T03:14:52.392Z,14.10
2018-07-08T03:17:20.844Z,14.10
2018-07-08T03:19:49.429Z,14.10
2018-07-08T03:22:17.880Z,14.20
2018-07-08T03:24:46.342Z,14.20
2018-07-08T03:27:14.815Z,14.20
2018-07-08T03:29:43.360Z,14.20
2018-07-08T03:32:11.849Z,14.20
2018-07-08T03:34:40.310Z,14.20
2018-07-08T03:39:36.979Z,14.20
2018-07-08T03:47:01.789Z,14.20
2018-07-08T03:49:30.294Z,14.30
2018-07-08T03:51:58.778Z,14.30
2018-07-08T03:54:30.393Z,14.30
2018-07-08T03:56:58.922Z,14.40
2018-07-08T03:59:27.427Z,14.40
2018-07-08T04:01:55.941Z,14.50
2018-07-08T04:04:24.443Z,14.50
2018-07-08T04:06:52.940Z,14.50
2018-07-08T04:09:21.452Z,14.50
2018-07-08T04:11:49.962Z,14.60
2018-07-08T04:14:18.402Z,14.60
2018-07-08T04:16:47.489Z,14.60
2018-07-08T04:19:16.022Z,14.70
2018-07-08T04:24:12.830Z,14.80
2018-07-08T04:26:41.327Z,14.90
2018-07-08T04:29:09.845Z,14.90
2018-07-08T04:31:38.355Z,15.00
2018-07-08T04:34:06.890Z,15.00
2018-07-08T04:36:35.547Z,15.00
2018-07-08T04:39:04.999Z,15.10
2018-07-08T04:41:33.504Z,15.20
2018-07-08T04:44:02.048Z,15.30
2018-07-08T04:46:30.548Z,15.40
2018-07-08T04:48:59.040Z,15.50
2018-07-08T04:51:27.500Z,15.60
2018-07-08T04:53:56.004Z,15.60
2018-07-08T04:56:24.595Z,15.70
2018-07-08T04:58:53.175Z,15.70
2018-07-08T05:01:21.619Z,15.70
2018-07-08T05:03:50.127Z,15.70
2018-07-08T05:06:18.584Z,15.70
2018-07-08T05:08:47.075Z,15.70
2018-07-08T05:13:43.943Z,15.70
2018-07-08T05:18:40.554Z,15.70
2018-07-08T05:21:09.364Z,15.80
2018-07-08T05:23:37.910Z,15.80
2018-07-08T05:26:06.396Z,15.80
2018-07-08T05:28:34.912Z,15.90
2018-07-08T05:31:03.436Z,15.90
2018-07-08T05:33:32.053Z,15.90
2018-07-08T05:36:00.567Z,15.90
2018-07-08T05:38:29.043Z,16.00
2018-07-08T05:40:57.598Z,16.00
2018-07-08T05:43:26.232Z,16.00
2018-07-08T05:45:54.711Z,16.10
2018-07-08T05:48:23.274Z,16.10
2018-07-08T05:50:51.743Z,16.10
2018-07-08T05:53:20.200Z,16.10
2018-07-08T05:55:48.696Z,16.10
2018-07-08T05:58:17.179Z,16.20
2018-07-08T06:00:45.691Z,16.20
2018-07-08T06:03:14.166Z,16.20
2018-07-08T06:05:42.646Z,16.20
2018-07-08T06:10:39.230Z,16.30
2018-07-08T06:13:07.798Z,16.30
2018-07-08T06:18:04.522Z,16.40
2018-07-08T06:20:33.086Z,16.40
2018-07-08T06:23:01.600Z,16.50
2018-07-08T06:25:30.066Z,16.40
2018-07-08T06:27:58.587Z,16.60
2018-07-08T06:30:27.160Z,16.60
2018-07-08T06:32:55.808Z,16.60
2018-07-08T06:35:24.310Z,16.70
2018-07-08T06:37:52.952Z,16.70
2018-07-08T06:40:21.474Z,16.80
2018-07-08T06:42:49.955Z,16.80
2018-07-08T06:45:18.468Z,16.80
2018-07-08T06:47:46.920Z,17.00
2018-07-08T06:50:15.425Z,17.00
2018-07-08T06:52:43.938Z,17.00
2018-07-08T06:55:12.399Z,17.10
2018-07-08T06:57:41.027Z,17.10
2018-07-08T07:00:09.461Z,17.10
2018-07-08T07:02:37.936Z,17.20
2018-07-08T07:05:06.426Z,17.30
2018-07-08T07:07:34.926Z,17.40
2018-07-08T07:10:03.574Z,17.40
2018-07-08T07:15:00.285Z,17.60
2018-07-08T07:17:28.783Z,17.70
2018-07-08T07:19:57.241Z,17.80
2018-07-08T07:22:25.711Z,17.90
2018-07-08T07:24:54.223Z,17.90
2018-07-08T07:27:22.723Z,18.00
2018-07-08T07:29:51.951Z,18.00
2018-07-08T07:32:20.426Z,18.10
2018-07-08T07:34:48.887Z,18.10
2018-07-08T07:37:17.433Z,18.10
2018-07-08T07:39:46.012Z,18.20
2018-07-08T07:44:42.795Z,18.30
2018-07-08T07:49:39.459Z,18.40
2018-07-08T07:52:07.935Z,18.50
2018-07-08T07:57:04.601Z,18.60
2018-07-08T08:02:01.246Z,18.70
2018-07-08T08:04:29.717Z,18.80
2018-07-08T08:06:58.205Z,18.80
2018-07-08T08:09:26.696Z,18.90
2018-07-08T08:11:55.201Z,18.90
2018-07-08T08:14:23.686Z,19.00
2018-07-08T08:16:52.186Z,19.00
2018-07-08T08:19:20.740Z,19.00
2018-07-08T08:21:49.246Z,19.10
2018-07-08T08:24:17.722Z,19.10
2018-07-08T08:26:46.226Z,19.20
2018-07-08T08:31:42.900Z,19.40
2018-07-08T08:35:16.270Z,19.50
2018-07-08T08:37:49.013Z,19.60
2018-07-08T08:40:18.388Z,19.60
2018-07-08T08:42:46.978Z,19.70
2018-07-08T08:45:16.681Z,19.80
2018-07-08T08:47:45.242Z,19.80
2018-07-08T08:50:14.173Z,19.80
2018-07-08T08:52:42.749Z,19.90
2018-07-08T08:55:12.405Z,19.90
2018-07-08T08:57:44.700Z,19.90
2018-07-08T09:00:15.677Z,20.00
2018-07-08T09:02:44.247Z,20.00
2018-07-08T09:05:12.740Z,20.10
2018-07-08T09:07:41.313Z,20.20
2018-07-08T09:10:09.861Z,20.20
2018-07-08T09:12:38.642Z,20.30
2018-07-08T09:15:07.178Z,20.30
2018-07-08T09:20:03.871Z,20.50
2018-07-08T09:22:32.390Z,20.60
2018-07-08T09:25:00.848Z,20.70
2018-07-08T09:27:29.418Z,20.80
2018-07-08T09:29:58.038Z,20.80
2018-07-08T09:32:26.554Z,20.90
2018-07-08T09:34:55.110Z,20.90
2018-07-08T09:37:23.616Z,21.00
2018-07-08T09:39:52.102Z,21.10
2018-07-08T09:42:20.586Z,21.20
2018-07-08T09:44:49.111Z,21.20
2018-07-08T09:47:17.587Z,21.30
2018-07-08T09:49:46.103Z,21.40
2018-07-08T09:52:14.602Z,21.40
2018-07-08T09:54:43.094Z,21.50
2018-07-08T09:57:11.590Z,21.60
2018-07-08T09:59:40.102Z,21.60
2018-07-08T10:02:08.600Z,21.70
2018-07-08T10:07:05.830Z,21.80
2018-07-08T10:09:34.297Z,21.90
2018-07-08T10:12:02.801Z,22.00
2018-07-08T10:14:31.356Z,22.00
2018-07-08T10:16:59.787Z,22.10
2018-07-08T10:19:28.404Z,22.10
2018-07-08T10:21:57.453Z,22.10
2018-07-08T10:24:25.981Z,22.30
2018-07-08T10:29:02.380Z,22.30
2018-07-08T10:31:42.446Z,22.40
2018-07-08T10:36:39.660Z,22.50
2018-07-08T10:39:09.474Z,22.60
2018-07-08T10:41:37.996Z,22.60
2018-07-08T10:44:06.555Z,22.60
2018-07-08T10:46:35.062Z,22.70
2018-07-08T10:49:03.512Z,22.70
2018-07-08T10:51:32.078Z,22.80
2018-07-08T10:54:00.600Z,22.90
2018-07-08T10:56:29.207Z,23.00
2018-07-08T10:58:57.778Z,23.00
2018-07-08T11:01:26.347Z,23.00
2018-07-08T11:03:54.869Z,23.00
2018-07-08T11:06:23.364Z,23.00
2018-07-08T11:08:52.251Z,23.00
2018-07-08T11:11:20.791Z,23.10
2018-07-08T11:13:49.419Z,23.10
2018-07-08T11:16:18.030Z,23.10
2018-07-08T11:18:46.535Z,23.20
2018-07-08T11:21:15.101Z,23.20
2018-07-08T11:23:44.209Z,23.30
2018-07-08T11:26:13.451Z,23.30
2018-07-08T11:28:42.009Z,23.40
2018-07-08T11:31:10.474Z,23.50
2018-07-08T11:33:39.027Z,23.50
2018-07-08T11:36:07.713Z,23.60
2018-07-08T11:38:36.307Z,23.60
2018-07-08T11:41:05.483Z,23.60
2018-07-08T11:43:34.941Z,23.60
2018-07-08T11:46:03.507Z,23.50
2018-07-08T11:48:31.980Z,23.50
2018-07-08T11:51:00.508Z,23.50
2018-07-08T11:53:28.979Z,23.60
2018-07-08T11:55:57.529Z,23.60
2018-07-08T11:58:26.005Z,23.60
2018-07-08T12:00:54.510Z,23.70
2018-07-08T12:03:23.001Z,23.80
2018-07-08T12:05:51.505Z,23.80
2018-07-08T12:08:19.982Z,23.70
2018-07-08T12:10:48.533Z,23.70
2018-07-08T12:15:45.164Z,23.70
2018-07-08T12:18:13.650Z,23.80
2018-07-08T12:20:42.146Z,23.90
2018-07-08T12:23:10.634Z,23.80
2018-07-08T12:25:39.124Z,23.90
2018-07-08T12:28:07.602Z,23.90
2018-07-08T12:33:04.593Z,24.00
2018-07-08T12:38:01.251Z,24.10
2018-07-08T12:40:29.764Z,24.10
2018-07-08T12:42:58.297Z,24.20
2018-07-08T12:45:26.771Z,24.20
2018-07-08T12:47:55.303Z,24.20
2018-07-08T12:50:23.809Z,24.20
2018-07-08T12:52:52.340Z,24.20
2018-07-08T12:55:20.837Z,24.30
2018-07-08T12:57:49.326Z,24.30
2018-07-08T13:00:17.840Z,24.40
2018-07-08T13:05:14.499Z,24.40
2018-07-08T13:10:11.202Z,24.50
2018-07-08T13:12:39.766Z,24.40
2018-07-08T13:15:08.225Z,24.50
2018-07-08T13:22:33.973Z,24.50
2018-07-08T13:25:02.470Z,24.60
2018-07-08T13:27:30.974Z,24.60
2018-07-08T13:29:59.455Z,24.50
2018-07-08T13:34:56.138Z,24.50
2018-07-08T13:37:24.704Z,24.50
2018-07-08T13:42:21.384Z,24.50
2018-07-08T13:44:49.860Z,24.50
2018-07-08T13:47:18.355Z,24.60
2018-07-08T13:49:46.842Z,24.60
2018-07-08T13:52:15.350Z,24.60
2018-07-08T13:54:44.171Z,24.60
2018-07-08T13:57:12.622Z,24.60
2018-07-08T13:59:41.144Z,24.50
2018-07-08T14:02:09.678Z,24.50
2018-07-08T14:04:38.185Z,24.50
2018-07-08T14:07:07.391Z,24.60
2018-07-08T14:09:35.937Z,24.60
2018-07-08T14:12:04.447Z,24.50
2018-07-08T14:14:32.948Z,24.60
2018-07-08T14:17:01.494Z,24.60
2018-07-08T14:19:30.001Z,24.50
2018-07-08T14:21:58.464Z,24.50
2018-07-08T14:24:27.126Z,24.50
2018-07-08T14:26:55.564Z,24.50
2018-07-08T14:29:24.140Z,24.60
2018-07-08T14:31:52.764Z,24.60
2018-07-08T14:34:21.280Z,24.60
2018-07-08T14:36:49.770Z,24.60
2018-07-08T14:39:18.230Z,24.60
2018-07-08T14:41:46.730Z,24.60
2018-07-08T14:44:15.976Z,24.60
2018-07-08T14:46:44.510Z,24.60
2018-07-08T14:49:13.035Z,24.60
2018-07-08T14:51:41.535Z,24.60
2018-07-08T14:56:38.682Z,24.60
2018-07-08T14:59:07.202Z,24.60
2018-07-08T15:01:35.782Z,24.60
2018-07-08T15:06:32.590Z,24.60
2018-07-08T15:09:04.632Z,24.60
2018-07-08T15:11:33.155Z,24.60
2018-07-08T15:14:01.657Z,24.60
2018-07-08T15:16:30.258Z,24.60
2018-07-08T15:18:58.658Z,24.60
2018-07-08T15:21:27.336Z,24.60
2018-07-08T15:23:56.647Z,24.50
2018-07-08T15:26:25.124Z,24.60
2018-07-08T15:28:53.662Z,24.50
2018-07-08T15:31:22.161Z,24.50
2018-07-08T15:33:50.967Z,24.60
2018-07-08T15:36:20.678Z,24.60
2018-07-08T15:38:49.185Z,24.60
2018-07-08T15:41:17.802Z,24.50
2018-07-08T15:43:46.425Z,24.40
2018-07-08T15:46:14.890Z,24.40
2018-07-08T15:48:43.515Z,24.40
2018-07-08T15:51:11.978Z,24.40
2018-07-08T15:53:40.504Z,24.40
2018-07-08T15:56:09.002Z,24.30
2018-07-08T15:58:37.481Z,24.30
2018-07-08T16:01:05.936Z,24.20
2018-07-08T16:03:34.443Z,24.20
2018-07-08T16:06:03.014Z,24.20
2018-07-08T16:08:31.578Z,24.10
2018-07-08T16:11:00.055Z,24.10
2018-07-08T16:13:28.640Z,24.00
2018-07-08T16:15:57.654Z,23.90
2018-07-08T16:18:26.511Z,23.90
2018-07-08T16:20:55.197Z,23.70
2018-07-08T16:23:23.661Z,23.70
2018-07-08T16:25:52.258Z,23.60
2018-07-08T16:28:20.790Z,23.60
2018-07-08T16:30:49.355Z,23.50
2018-07-08T16:33:17.970Z,23.50
2018-07-08T16:35:51.243Z,23.30
2018-07-08T16:38:19.706Z,23.30
2018-07-08T16:40:48.284Z,23.20
2018-07-08T16:43:16.779Z,23.20
2018-07-08T16:45:45.524Z,23.10
2018-07-08T16:48:14.058Z,23.10
2018-07-08T16:50:42.563Z,23.10
2018-07-08T16:55:39.395Z,23.00
2018-07-08T16:58:07.847Z,22.80
2018-07-08T17:00:36.415Z,22.80
2018-07-08T17:03:04.884Z,22.70
2018-07-08T17:05:33.410Z,22.60
2018-07-08T17:08:01.947Z,22.60
2018-07-08T17:12:59.211Z,22.60
2018-07-08T17:15:27.688Z,22.60
2018-07-08T17:17:56.286Z,22.60
2018-07-08T17:20:24.834Z,22.50
2018-07-08T17:22:53.338Z,22.50
2018-07-08T17:25:21.836Z,22.50
2018-07-08T17:27:50.346Z,22.40
2018-07-08T17:40:12.225Z,22.20
2018-07-08T17:42:40.763Z,22.20
2018-07-08T17:45:09.247Z,22.10
2018-07-08T17:47:37.792Z,22.00
2018-07-08T17:50:06.420Z,22.00
2018-07-08T17:55:03.211Z,21.90
2018-07-08T17:57:31.737Z,21.80
2018-07-08T18:00:00.267Z,21.70
2018-07-08T18:09:53.365Z,21.60
2018-07-08T18:12:21.787Z,21.50
2018-07-08T18:14:50.397Z,21.40
2018-07-08T18:17:19.197Z,21.30
2018-07-08T18:19:47.720Z,21.30
2018-07-08T18:24:44.445Z,21.10
2018-07-08T18:27:12.937Z,20.90
2018-07-08T18:29:41.406Z,20.80
2018-07-08T18:32:09.941Z,20.80
2018-07-08T18:34:38.452Z,20.70
2018-07-08T18:39:35.168Z,20.50
2018-07-08T18:42:04.244Z,20.40
2018-07-08T18:44:32.754Z,20.30
2018-07-08T18:47:01.222Z,20.20
2018-07-08T18:49:29.713Z,20.10
2018-07-08T18:51:58.238Z,20.10
2018-07-08T18:54:27.462Z,20.10
2018-07-08T18:59:24.473Z,19.90
2018-07-08T19:01:52.924Z,19.90
2018-07-08T19:04:21.422Z,19.80
2018-07-08T19:06:49.897Z,19.80
2018-07-08T19:11:46.566Z,19.60
2018-07-08T19:14:15.052Z,19.50
2018-07-08T19:16:43.579Z,19.40
2018-07-08T19:19:12.041Z,19.40
2018-07-08T19:21:40.566Z,19.30
2018-07-08T19:24:09.063Z,19.20
2018-07-08T19:26:37.544Z,19.20
2018-07-08T19:29:06.048Z,19.10
2018-07-08T19:34:02.771Z,19.00
2018-07-08T19:36:31.282Z,18.90
2018-07-08T19:38:59.721Z,18.80
2018-07-08T19:41:28.242Z,18.70
2018-07-08T19:43:57.645Z,18.70
2018-07-08T19:46:27.304Z,18.60
2018-07-08T19:48:55.818Z,18.50
2018-07-08T19:51:24.551Z,18.50
2018-07-08T19:53:53.064Z,18.40
2018-07-08T19:56:21.603Z,18.40
2018-07-08T19:58:50.140Z,18.30
2018-07-08T20:03:46.796Z,18.20
2018-07-08T20:08:43.479Z,18.10
2018-07-08T20:11:11.985Z,18.00
2018-07-08T20:13:40.498Z,18.00
2018-07-08T20:16:09.025Z,17.90
2018-07-08T20:18:37.569Z,17.90
2018-07-08T20:21:06.150Z,17.80
2018-07-08T20:23:34.579Z,17.70
2018-07-08T20:28:31.269Z,17.60
2018-07-08T20:30:59.783Z,17.60
2018-07-08T20:33:28.438Z,17.60
2018-07-08T20:35:57.373Z,17.50
2018-07-08T20:38:25.856Z,17.40
2018-07-08T20:40:54.373Z,17.40
2018-07-08T20:43:22.927Z,17.40
2018-07-08T20:45:51.434Z,17.40
2018-07-08T20:48:19.951Z,17.30
2018-07-08T20:50:48.405Z,17.30
2018-07-08T20:53:16.935Z,17.30
2018-07-08T20:55:45.426Z,17.20
2018-07-08T20:58:13.916Z,17.10
2018-07-08T21:00:42.417Z,17.10
2018-07-08T21:03:10.903Z,17.10
2018-07-08T21:05:39.473Z,17.00
2018-07-08T21:08:07.945Z,17.00
2018-07-08T21:10:36.424Z,17.00
2018-07-08T21:18:01.571Z,16.90
2018-07-08T21:22:58.592Z,16.80
2018-07-08T21:25:27.114Z,16.70
2018-07-08T21:27:55.632Z,16.70
2018-07-08T21:30:24.135Z,16.70
2018-07-08T21:32:52.594Z,16.70
2018-07-08T21:37:49.736Z,16.60
2018-07-08T21:40:18.264Z,16.60
2018-07-08T21:42:46.867Z,16.50
2018-07-08T21:45:15.382Z,16.50
2018-07-08T21:47:43.886Z,16.50
2018-07-08T21:50:12.432Z,16.40
2018-07-08T21:52:40.904Z,16.40
2018-07-08T21:55:09.423Z,16.40
2018-07-08T21:57:37.967Z,16.40
2018-07-08T22:00:06.939Z,16.30
2018-07-08T22:02:35.474Z,16.30
2018-07-08T22:05:03.974Z,16.30
2018-07-08T22:07:37.822Z,16.30
2018-07-08T22:10:06.679Z,16.20
2018-07-08T22:12:35.202Z,16.20
2018-07-08T22:17:31.844Z,16.10
2018-07-08T22:20:00.354Z,16.10
2018-07-08T22:22:28.844Z,16.10
2018-07-08T22:27:26.352Z,16.00
2018-07-08T22:29:54.946Z,16.00
2018-07-08T22:32:24.041Z,16.00
2018-07-08T22:34:52.507Z,15.90
2018-07-08T22:37:20.996Z,15.90
2018-07-08T22:39:49.514Z,15.90
2018-07-08T22:42:18.109Z,15.90
2018-07-08T22:44:46.704Z,15.80
2018-07-08T22:47:15.247Z,15.80
2018-07-08T22:52:12.006Z,15.80
2018-07-08T22:57:08.732Z,15.70
2018-07-08T22:59:48.359Z,15.70
2018-07-08T23:02:28.489Z,15.70
2018-07-08T23:04:56.959Z,15.70
2018-07-08T23:07:25.470Z,15.60
2018-07-08T23:09:53.934Z,15.60
2018-07-08T23:12:22.474Z,15.60
2018-07-08T23:14:50.935Z,15.60
2018-07-08T23:17:19.415Z,15.50
2018-07-08T23:19:47.928Z,15.50
2018-07-08T23:22:20.157Z,15.50
2018-07-08T23:24:48.680Z,15.50
2018-07-08T23:27:17.502Z,15.40
2018-07-08T23:29:46.191Z,15.40
2018-07-08T23:32:14.851Z,15.40
2018-07-08T23:34:43.427Z,15.30
2018-07-08T23:37:12.024Z,15.30
2018-07-08T23:39:40.580Z,15.30
2018-07-08T23:42:09.152Z,15.30
2018-07-08T23:44:37.786Z,15.30
2018-07-08T23:47:06.290Z,15.30
2018-07-08T23:49:34.892Z,15.20
2018-07-08T23:52:03.571Z,15.20
2018-07-08T23:54:32.062Z,15.20
2018-07-08T23:57:00.808Z,15.20
2018-07-08T23:59:29.383Z,15.20
